Check out our new BloomSky Weather System.

Active alerts


No alerts


Thunder radar  blitzortung!


Rain radar more information rain snow radar


Visit our other weather sites:

Template documentation
and downloads

And another site



Weather Underground History page Text

Daily Summary for March 13, 2017 Units:  English    Metric   Both
« Previous Day
Next Day »
Daily Weekly Monthly Yearly Custom
  High: Low: Average:
Temperature: 67.6 °F 48.7 °F 55.6 °F
Dew Point: 55.6 °F 47.3 °F 50.6 °F
Humidity: 97 % 61 % 84 %
Wind Speed: 12.0 mph 0.0 mph 2.2 mph
Wind Gust: 15.0 mph - -
Wind:- - NW
Pressure: 30.19 in 30.03 in -
Precipitation: 0.00 in    
Historical Graphs
 
 
Tabular Data for March 13, 2017
Time Temperature Dew Point Pressure Wind Wind Speed Wind Gust Humidity Rainfall Rate (Hourly)
00:04 52.9 °F 50.4 °F 30.09 in Calm   2.0 mph 91 % 0.00 in
00:09 52.9 °F 50.4 °F 30.09 in Calm   2.0 mph 91 % 0.00 in
00:14 52.7 °F 50.2 °F 30.09 in Calm   2.0 mph 91 % 0.00 in
00:19 52.5 °F 50.0 °F 30.08 in WNW 1.0 mph 2.0 mph 91 % 0.00 in
00:24 52.5 °F 50.0 °F 30.08 in Calm   2.0 mph 91 % 0.00 in
00:29 52.5 °F 50.2 °F 30.08 in Calm   2.0 mph 92 % 0.00 in
00:34 52.3 °F 50.0 °F 30.08 in Calm   2.0 mph 92 % 0.00 in
00:39 52.3 °F 50.0 °F 30.08 in Calm   2.0 mph 92 % 0.00 in
00:44 52.3 °F 50.0 °F 30.08 in Calm   2.0 mph 92 % 0.00 in
00:49 52.3 °F 50.0 °F 30.08 in Calm   2.0 mph 92 % 0.00 in
00:54 52.3 °F 50.0 °F 30.08 in Calm   2.0 mph 92 % 0.00 in
00:59 52.3 °F 50.0 °F 30.07 in Calm   2.0 mph 92 % 0.00 in
01:04 52.2 °F 49.8 °F 30.07 in Calm   2.0 mph 92 % 0.00 in
01:09 52.0 °F 49.6 °F 30.07 in Calm   2.0 mph 92 % 0.00 in
01:14 52.0 °F 49.6 °F 30.06 in Calm   1.0 mph 92 % 0.00 in
01:19 51.8 °F 49.6 °F 30.06 in Calm   1.0 mph 92 % 0.00 in
01:24 51.6 °F 49.6 °F 30.06 in Calm   1.0 mph 93 % 0.00 in
01:29 51.4 °F 49.5 °F 30.05 in Calm   1.0 mph 93 % 0.00 in
01:34 51.3 °F 49.3 °F 30.05 in Calm   1.0 mph 93 % 0.00 in
01:39 51.3 °F 49.3 °F 30.05 in Calm   1.0 mph 93 % 0.00 in
01:44 51.1 °F 49.1 °F 30.05 in Calm   1.0 mph 93 % 0.00 in
01:49 50.7 °F 48.7 °F 30.04 in Calm   1.0 mph 93 % 0.00 in
01:54 50.5 °F 48.6 °F 30.05 in Calm   1.0 mph 93 % 0.00 in
01:59 50.4 °F 48.7 °F 30.05 in Calm     94 % 0.00 in
02:04 50.4 °F 48.7 °F 30.05 in Calm   1.0 mph 94 % 0.00 in
02:09 50.2 °F 48.6 °F 30.05 in Calm   1.0 mph 94 % 0.00 in
02:14 50.0 °F 48.4 °F 30.05 in Calm   1.0 mph 94 % 0.00 in
02:19 49.8 °F 48.2 °F 30.05 in Calm   1.0 mph 94 % 0.00 in
02:24 49.8 °F 48.4 °F 30.04 in Calm   1.0 mph 95 % 0.00 in
02:29 49.6 °F 48.2 °F 30.04 in Calm   1.0 mph 95 % 0.00 in
02:35 49.6 °F 48.2 °F 30.04 in Calm   1.0 mph 95 % 0.00 in
02:39 49.5 °F 48.0 °F 30.04 in Calm   1.0 mph 95 % 0.00 in
02:45 49.5 °F 48.0 °F 30.05 in Calm     95 % 0.00 in
02:50 49.5 °F 48.0 °F 30.05 in Calm   1.0 mph 95 % 0.00 in
02:55 49.3 °F 48.2 °F 30.05 in Calm   1.0 mph 96 % 0.00 in
03:00 49.3 °F 48.2 °F 30.04 in SSE 1.0 mph 1.0 mph 96 % 0.00 in
03:05 49.5 °F 48.4 °F 30.04 in Calm   1.0 mph 96 % 0.00 in
03:10 49.6 °F 48.6 °F 30.04 in Calm   1.0 mph 96 % 0.00 in
03:15 49.5 °F 48.4 °F 30.04 in Calm   1.0 mph 96 % 0.00 in
03:20 49.5 °F 48.4 °F 30.04 in Calm   1.0 mph 96 % 0.00 in
03:25 49.5 °F 48.4 °F 30.04 in Calm   1.0 mph 96 % 0.00 in
03:30 49.3 °F 48.2 °F 30.04 in Calm     96 % 0.00 in
03:35 49.3 °F 48.2 °F 30.04 in Calm     96 % 0.00 in
03:40 49.3 °F 48.2 °F 30.04 in Calm     96 % 0.00 in
03:45 49.3 °F 48.2 °F 30.04 in Calm     96 % 0.00 in
03:50 49.1 °F 48.0 °F 30.04 in Calm     96 % 0.00 in
03:55 49.1 °F 48.0 °F 30.04 in Calm   1.0 mph 96 % 0.00 in
04:00 49.1 °F 48.0 °F 30.04 in Calm   2.0 mph 96 % 0.00 in
04:05 49.1 °F 48.2 °F 30.05 in Calm   3.0 mph 97 % 0.00 in
04:10 49.1 °F 48.2 °F 30.05 in Calm   3.0 mph 97 % 0.00 in
04:15 49.1 °F 48.0 °F 30.04 in Calm   3.0 mph 96 % 0.00 in
04:20 49.1 °F 48.2 °F 30.04 in Calm   3.0 mph 97 % 0.00 in
04:25 48.9 °F 48.0 °F 30.05 in West 1.0 mph 3.0 mph 97 % 0.00 in
04:30 48.9 °F 48.0 °F 30.04 in NW 1.0 mph 4.0 mph 97 % 0.00 in
04:35 48.9 °F 47.8 °F 30.04 in NW 1.0 mph 4.0 mph 96 % 0.00 in
04:40 48.9 °F 47.8 °F 30.04 in Calm   4.0 mph 96 % 0.00 in
04:45 48.7 °F 47.7 °F 30.04 in Calm   3.0 mph 96 % 0.00 in
04:50 48.7 °F 47.7 °F 30.04 in NW 1.0 mph 2.0 mph 96 % 0.00 in
04:55 48.7 °F 47.8 °F 30.04 in Calm   2.0 mph 97 % 0.00 in
05:00 48.7 °F 47.8 °F 30.04 in Calm   2.0 mph 97 % 0.00 in
05:05 48.7 °F 47.8 °F 30.04 in WNW 1.0 mph 2.0 mph 97 % 0.00 in
05:10 48.7 °F 47.8 °F 30.03 in WNW 1.0 mph 4.0 mph 97 % 0.00 in
05:15 48.7 °F 47.8 °F 30.04 in NW 1.0 mph 4.0 mph 97 % 0.00 in
05:20 48.7 °F 47.7 °F 30.04 in NW 2.0 mph 4.0 mph 96 % 0.00 in
05:25 48.7 °F 47.8 °F 30.04 in NW 2.0 mph 4.0 mph 97 % 0.00 in
05:26 48.7 °F 47.8 °F 30.04 in NW 2.0 mph 4.0 mph 97 % 0.00 in
05:31 48.7 °F 47.8 °F 30.04 in NW 2.0 mph 4.0 mph 97 % 0.00 in
05:36 48.9 °F 48.0 °F 30.04 in WNW 1.0 mph 5.0 mph 97 % 0.00 in
05:41 49.1 °F 48.2 °F 30.04 in NW 4.0 mph 5.0 mph 97 % 0.00 in
05:46 49.1 °F 48.2 °F 30.04 in Calm   5.0 mph 97 % 0.00 in
05:51 49.1 °F 48.0 °F 30.04 in Calm   5.0 mph 96 % 0.00 in
05:56 49.3 °F 48.2 °F 30.04 in NW 1.0 mph 4.0 mph 96 % 0.00 in
06:01 49.3 °F 48.4 °F 30.05 in NW 2.0 mph 4.0 mph 97 % 0.00 in
06:06 49.5 °F 48.4 °F 30.05 in NW 4.0 mph 6.0 mph 96 % 0.00 in
06:11 49.5 °F 48.4 °F 30.04 in NW 1.0 mph 6.0 mph 96 % 0.00 in
06:16 49.5 °F 48.4 °F 30.05 in NNW 3.0 mph 7.0 mph 96 % 0.00 in
06:21 49.5 °F 48.4 °F 30.04 in NW 1.0 mph 7.0 mph 96 % 0.00 in
06:26 49.6 °F 48.6 °F 30.04 in WNW 1.0 mph 7.0 mph 96 % 0.00 in
06:31 49.6 °F 48.6 °F 30.04 in NW 1.0 mph 5.0 mph 96 % 0.00 in
06:36 49.8 °F 48.7 °F 30.04 in WNW 1.0 mph 4.0 mph 96 % 0.00 in
06:41 49.8 °F 48.7 °F 30.04 in Calm   3.0 mph 96 % 0.00 in
06:46 50.0 °F 48.9 °F 30.04 in NNW 1.0 mph 2.0 mph 96 % 0.00 in
06:51 50.2 °F 49.1 °F 30.04 in West 1.0 mph 3.0 mph 96 % 0.00 in
06:56 50.2 °F 49.1 °F 30.05 in WNW 1.0 mph 3.0 mph 96 % 0.00 in
07:01 50.2 °F 49.1 °F 30.04 in WNW 1.0 mph 3.0 mph 96 % 0.00 in
07:02 50.4 °F 49.3 °F 30.04 in NW 1.0 mph 3.0 mph 96 % 0.00 in
07:07 50.4 °F 49.3 °F 30.04 in NNW 2.0 mph 3.0 mph 96 % 0.00 in
07:12 50.4 °F 49.3 °F 30.04 in NNW 2.0 mph 3.0 mph 96 % 0.00 in
07:17 50.5 °F 49.1 °F 30.04 in NW 2.0 mph 3.0 mph 95 % 0.00 in
07:22 50.5 °F 49.1 °F 30.05 in NW 2.0 mph 4.0 mph 95 % 0.00 in
07:27 50.5 °F 49.1 °F 30.06 in NW 3.0 mph 5.0 mph 95 % 0.00 in
07:32 50.5 °F 49.1 °F 30.06 in NNW 2.0 mph 6.0 mph 95 % 0.00 in
07:38 50.7 °F 49.3 °F 30.06 in NNW 2.0 mph 6.0 mph 95 % 0.00 in
07:43 50.7 °F 49.3 °F 30.06 in NW 3.0 mph 6.0 mph 95 % 0.00 in
07:48 50.7 °F 49.3 °F 30.07 in NNW 3.0 mph 5.0 mph 95 % 0.00 in
07:53 50.9 °F 49.5 °F 30.06 in NW 1.0 mph 7.0 mph 95 % 0.00 in
07:58 51.1 °F 49.6 °F 30.07 in North 5.0 mph 7.0 mph 95 % 0.00 in
08:03 51.1 °F 49.6 °F 30.08 in NW 4.0 mph 7.0 mph 95 % 0.00 in
08:08 51.3 °F 49.8 °F 30.07 in NW 4.0 mph 7.0 mph 95 % 0.00 in
08:13 51.3 °F 49.8 °F 30.08 in NW 2.0 mph 6.0 mph 95 % 0.00 in
08:18 51.4 °F 50.0 °F 30.08 in NW 3.0 mph 6.0 mph 95 % 0.00 in
08:28 51.6 °F 50.2 °F 30.08 in NW 3.0 mph 7.0 mph 95 % 0.00 in
08:33 51.6 °F 50.0 °F 30.08 in NNW 2.0 mph 7.0 mph 94 % 0.00 in
08:38 52.0 °F 50.5 °F 30.08 in WNW 1.0 mph 7.0 mph 95 % 0.00 in
08:43 52.2 °F 50.5 °F 30.08 in NW 3.0 mph 7.0 mph 94 % 0.00 in
08:48 52.3 °F 50.7 °F 30.09 in NNW 2.0 mph 7.0 mph 94 % 0.00 in
08:53 52.5 °F 50.9 °F 30.09 in NW 3.0 mph 7.0 mph 94 % 0.00 in
08:58 52.5 °F 50.9 °F 30.09 in NW 3.0 mph 9.0 mph 94 % 0.00 in
09:03 52.7 °F 51.1 °F 30.09 in NNW 3.0 mph 9.0 mph 94 % 0.00 in
09:08 52.9 °F 51.3 °F 30.09 in NW 3.0 mph 11.0 mph 94 % 0.00 in
09:13 53.1 °F 51.1 °F 30.10 in NW 3.0 mph 11.0 mph 93 % 0.00 in
09:18 53.2 °F 51.3 °F 30.10 in NW 3.0 mph 11.0 mph 93 % 0.00 in
09:23 53.2 °F 51.3 °F 30.10 in NW 4.0 mph 8.0 mph 93 % 0.00 in
09:28 53.4 °F 51.4 °F 30.10 in NNE 6.0 mph 8.0 mph 93 % 0.00 in
09:34 53.6 °F 51.6 °F 30.10 in NW 3.0 mph 8.0 mph 93 % 0.00 in
09:39 53.8 °F 51.4 °F 30.11 in NW 4.0 mph 8.0 mph 92 % 0.00 in
09:44 54.0 °F 51.6 °F 30.11 in NW 3.0 mph 8.0 mph 92 % 0.00 in
09:49 54.1 °F 51.6 °F 30.11 in NNW 3.0 mph 9.0 mph 91 % 0.00 in
09:54 54.3 °F 51.8 °F 30.11 in NW 2.0 mph 9.0 mph 91 % 0.00 in
09:59 54.7 °F 52.2 °F 30.11 in NW 2.0 mph 9.0 mph 91 % 0.00 in
10:04 55.0 °F 52.2 °F 30.11 in NNW 1.0 mph 7.0 mph 90 % 0.00 in
10:09 55.6 °F 52.3 °F 30.11 in NNW 3.0 mph 5.0 mph 89 % 0.00 in
10:14 55.8 °F 52.3 °F 30.11 in NW 3.0 mph 6.0 mph 88 % 0.00 in
10:19 56.1 °F 52.3 °F 30.11 in NW 3.0 mph 6.0 mph 87 % 0.00 in
10:24 56.5 °F 52.7 °F 30.10 in NW 1.0 mph 6.0 mph 87 % 0.00 in
10:29 56.8 °F 52.7 °F 30.11 in NW 3.0 mph 6.0 mph 86 % 0.00 in
10:34 56.8 °F 52.3 °F 30.10 in NNW 2.0 mph 6.0 mph 85 % 0.00 in
10:39 57.0 °F 52.5 °F 30.10 in NNW 1.0 mph 5.0 mph 85 % 0.00 in
10:44 57.4 °F 52.9 °F 30.11 in NNW 1.0 mph 5.0 mph 85 % 0.00 in
10:49 57.6 °F 53.1 °F 30.11 in West 2.0 mph 5.0 mph 85 % 0.00 in
10:54 57.6 °F 53.1 °F 30.12 in NW 3.0 mph 4.0 mph 85 % 0.00 in
10:59 57.6 °F 53.1 °F 30.12 in NNW 1.0 mph 7.0 mph 85 % 0.00 in
11:04 57.4 °F 52.5 °F 30.12 in WNW 2.0 mph 8.0 mph 84 % 0.00 in
11:09 57.6 °F 52.7 °F 30.12 in NW 4.0 mph 8.0 mph 84 % 0.00 in
11:14 57.4 °F 52.5 °F 30.12 in WNW 5.0 mph 8.0 mph 84 % 0.00 in
11:19 57.6 °F 52.7 °F 30.12 in NNW 6.0 mph 8.0 mph 84 % 0.00 in
11:24 57.4 °F 52.3 °F 30.12 in NW 4.0 mph 10.0 mph 83 % 0.00 in
11:29 57.4 °F 52.3 °F 30.13 in NW 7.0 mph 14.0 mph 83 % 0.00 in
11:34 57.2 °F 51.8 °F 30.13 in NW 10.0 mph 14.0 mph 82 % 0.00 in
11:39 56.8 °F 51.8 °F 30.13 in NNW 6.0 mph 14.0 mph 83 % 0.00 in
11:44 56.8 °F 51.8 °F 30.13 in NW 5.0 mph 12.0 mph 83 % 0.00 in
11:49 56.7 °F 51.8 °F 30.13 in NW 3.0 mph 12.0 mph 84 % 0.00 in
11:54 56.7 °F 51.6 °F 30.14 in NNW 7.0 mph 12.0 mph 83 % 0.00 in
11:59 56.1 °F 51.4 °F 30.14 in NW 4.0 mph 12.0 mph 84 % 0.00 in
12:04 55.8 °F 51.1 °F 30.14 in NW 5.0 mph 12.0 mph 84 % 0.00 in
12:05 55.8 °F 51.1 °F 30.14 in WNW 6.0 mph 13.0 mph 84 % 0.00 in
12:10 55.6 °F 50.9 °F 30.13 in NW 7.0 mph 13.0 mph 84 % 0.00 in
12:15 55.8 °F 51.3 °F 30.13 in NW 3.0 mph 13.0 mph 85 % 0.00 in
12:20 55.8 °F 51.3 °F 30.14 in NW 4.0 mph 12.0 mph 85 % 0.00 in
12:25 55.8 °F 51.1 °F 30.14 in NW 3.0 mph 12.0 mph 84 % 0.00 in
12:30 56.1 °F 51.4 °F 30.13 in North 3.0 mph 12.0 mph 84 % 0.00 in
12:35 56.7 °F 51.8 °F 30.12 in NW 1.0 mph 9.0 mph 84 % 0.00 in
12:40 57.6 °F 52.7 °F 30.12 in North 2.0 mph 9.0 mph 84 % 0.00 in
12:45 57.9 °F 52.5 °F 30.12 in NNW 1.0 mph 6.0 mph 82 % 0.00 in
12:50 58.5 °F 53.1 °F 30.12 in NNW 5.0 mph 6.0 mph 82 % 0.00 in
12:55 58.6 °F 52.5 °F 30.12 in NW 5.0 mph 7.0 mph 80 % 0.00 in
13:00 58.8 °F 52.3 °F 30.12 in NNW 2.0 mph 7.0 mph 79 % 0.00 in
13:05 59.2 °F 53.1 °F 30.11 in Calm   7.0 mph 80 % 0.00 in
13:10 60.1 °F 53.6 °F 30.12 in WNW 5.0 mph 7.0 mph 79 % 0.00 in
13:15 59.7 °F 52.2 °F 30.12 in NW 3.0 mph 11.0 mph 76 % 0.00 in
13:20 59.9 °F 53.1 °F 30.12 in WNW 2.0 mph 11.0 mph 78 % 0.00 in
13:25 59.7 °F 52.5 °F 30.11 in NW 2.0 mph 11.0 mph 77 % 0.00 in
13:30 59.9 °F 52.7 °F 30.11 in WNW 4.0 mph 9.0 mph 77 % 0.00 in
13:35 60.1 °F 52.9 °F 30.11 in NW 4.0 mph 9.0 mph 77 % 0.00 in
13:40 60.1 °F 52.5 °F 30.11 in North 7.0 mph 12.0 mph 76 % 0.00 in
13:45 60.1 °F 52.9 °F 30.10 in WNW 5.0 mph 12.0 mph 77 % 0.00 in
13:50 60.3 °F 53.1 °F 30.10 in NNW 5.0 mph 12.0 mph 77 % 0.00 in
13:55 60.1 °F 52.5 °F 30.10 in North 7.0 mph 10.0 mph 76 % 0.00 in
14:00 60.1 °F 53.2 °F 30.09 in NW 4.0 mph 10.0 mph 78 % 0.00 in
14:05 60.1 °F 52.5 °F 30.09 in North 7.0 mph 10.0 mph 76 % 0.00 in
14:10 60.3 °F 53.1 °F 30.09 in NW 3.0 mph 10.0 mph 77 % 0.00 in
14:15 61.0 °F 53.4 °F 30.08 in NW 2.0 mph 10.0 mph 76 % 0.00 in
14:20 61.3 °F 53.4 °F 30.09 in NNW 2.0 mph 10.0 mph 75 % 0.00 in
14:25 61.5 °F 53.2 °F 30.08 in Calm   10.0 mph 74 % 0.00 in
14:30 61.7 °F 53.8 °F 30.08 in NNW 3.0 mph 10.0 mph 75 % 0.00 in
14:35 61.9 °F 53.8 °F 30.07 in Calm   6.0 mph 75 % 0.00 in
14:41 62.1 °F 53.6 °F 30.07 in NNW 6.0 mph 9.0 mph 74 % 0.00 in
14:46 61.9 °F 53.1 °F 30.08 in NW 3.0 mph 9.0 mph 73 % 0.00 in
14:51 62.2 °F 54.1 °F 30.08 in NNW 4.0 mph 9.0 mph 75 % 0.00 in
14:56 62.4 °F 54.0 °F 30.08 in NW 4.0 mph 9.0 mph 74 % 0.00 in
15:01 62.6 °F 54.1 °F 30.08 in NW 5.0 mph 9.0 mph 74 % 0.00 in
15:06 63.0 °F 54.9 °F 30.08 in NNW 2.0 mph 9.0 mph 75 % 0.00 in
15:11 63.7 °F 54.1 °F 30.08 in NNW 6.0 mph 9.0 mph 71 % 0.00 in
15:16 63.5 °F 54.7 °F 30.07 in NW 6.0 mph 11.0 mph 73 % 0.00 in
15:21 64.0 °F 55.6 °F 30.07 in NW 7.0 mph 11.0 mph 74 % 0.00 in
15:26 64.0 °F 54.5 °F 30.06 in Calm   11.0 mph 71 % 0.00 in
15:31 64.2 °F 54.7 °F 30.06 in NW 4.0 mph 9.0 mph 71 % 0.00 in
15:37 65.1 °F 54.7 °F 30.06 in NW 2.0 mph 9.0 mph 69 % 0.00 in
15:42 65.5 °F 55.0 °F 30.06 in WNW 2.0 mph 8.0 mph 69 % 0.00 in
15:47 65.7 °F 54.0 °F 30.06 in North 8.0 mph 8.0 mph 66 % 0.00 in
15:52 66.0 °F 54.7 °F 30.06 in North 4.0 mph 10.0 mph 67 % 0.00 in
15:57 66.9 °F 54.3 °F 30.06 in NNW 7.0 mph 10.0 mph 64 % 0.00 in
16:02 66.9 °F 53.4 °F 30.06 in North 4.0 mph 11.0 mph 62 % 0.00 in
16:07 67.1 °F 54.1 °F 30.06 in NNW 6.0 mph 13.0 mph 63 % 0.00 in
16:12 67.6 °F 54.1 °F 30.06 in NNW 4.0 mph 13.0 mph 62 % 0.00 in
16:17 67.1 °F 54.1 °F 30.06 in WNW 6.0 mph 13.0 mph 63 % 0.00 in
16:22 66.9 °F 54.0 °F 30.06 in NW 4.0 mph 12.0 mph 63 % 0.00 in
16:27 66.7 °F 53.8 °F 30.06 in NW 12.0 mph 13.0 mph 63 % 0.00 in
16:32 66.7 °F 53.8 °F 30.06 in NNW 5.0 mph 14.0 mph 63 % 0.00 in
16:37 66.9 °F 54.0 °F 30.06 in North 4.0 mph 14.0 mph 63 % 0.00 in
16:42 66.9 °F 53.4 °F 30.06 in NW 9.0 mph 14.0 mph 62 % 0.00 in
16:47 66.6 °F 54.0 °F 30.06 in WSW 2.0 mph 12.0 mph 64 % 0.00 in
16:52 66.9 °F 54.0 °F 30.06 in NW 7.0 mph 11.0 mph 63 % 0.00 in
16:57 67.1 °F 54.1 °F 30.06 in West 5.0 mph 11.0 mph 63 % 0.00 in
17:02 67.3 °F 54.3 °F 30.06 in NNW 5.0 mph 11.0 mph 63 % 0.00 in
17:07 67.5 °F 54.5 °F 30.06 in West 3.0 mph 11.0 mph 63 % 0.00 in
17:12 67.6 °F 53.8 °F 30.06 in NNW 7.0 mph 9.0 mph 61 % 0.00 in
17:17 67.5 °F 53.6 °F 30.06 in NW 6.0 mph 12.0 mph 61 % 0.00 in
17:22 67.5 °F 54.5 °F 30.06 in NNW 5.0 mph 12.0 mph 63 % 0.00 in
17:27 67.5 °F 53.6 °F 30.06 in NW 10.0 mph 12.0 mph 61 % 0.00 in
17:32 66.9 °F 53.1 °F 30.06 in NW 8.0 mph 15.0 mph 61 % 0.00 in
17:37 66.6 °F 53.6 °F 30.06 in WNW 5.0 mph 15.0 mph 63 % 0.00 in
17:42 66.4 °F 53.8 °F 30.06 in NNW 7.0 mph 15.0 mph 64 % 0.00 in
17:47 66.0 °F 53.4 °F 30.06 in NNW 7.0 mph 13.0 mph 64 % 0.00 in
17:52 66.0 °F 53.4 °F 30.06 in NNW 6.0 mph 13.0 mph 64 % 0.00 in
17:57 65.7 °F 53.2 °F 30.07 in NNW 3.0 mph 13.0 mph 64 % 0.00 in
18:02 65.8 °F 53.2 °F 30.07 in NNW 7.0 mph 12.0 mph 64 % 0.00 in
18:07 65.7 °F 53.2 °F 30.07 in NW 4.0 mph 12.0 mph 64 % 0.00 in
18:12 65.5 °F 53.1 °F 30.08 in NW 5.0 mph 10.0 mph 64 % 0.00 in
18:17 64.9 °F 52.5 °F 30.08 in WNW 6.0 mph 11.0 mph 64 % 0.00 in
18:22 64.8 °F 52.3 °F 30.08 in NW 5.0 mph 14.0 mph 64 % 0.00 in
18:27 64.4 °F 52.0 °F 30.09 in NW 7.0 mph 14.0 mph 64 % 0.00 in
18:32 64.2 °F 52.2 °F 30.09 in West 6.0 mph 14.0 mph 65 % 0.00 in
18:37 63.9 °F 51.8 °F 30.09 in NNW 3.0 mph 11.0 mph 65 % 0.00 in
18:42 63.7 °F 52.2 °F 30.09 in NW 5.0 mph 11.0 mph 66 % 0.00 in
18:47 63.3 °F 50.9 °F 30.09 in NNW 9.0 mph 10.0 mph 64 % 0.00 in
18:52 63.1 °F 51.3 °F 30.10 in NW 3.0 mph 11.0 mph 65 % 0.00 in
18:57 63.0 °F 51.1 °F 30.10 in NW 5.0 mph 11.0 mph 65 % 0.00 in
19:02 62.8 °F 50.9 °F 30.10 in NNW 4.0 mph 11.0 mph 65 % 0.00 in
19:07 62.4 °F 50.9 °F 30.10 in WNW 3.0 mph 11.0 mph 66 % 0.00 in
19:12 62.1 °F 50.9 °F 30.11 in NW 2.0 mph 10.0 mph 67 % 0.00 in
19:17 61.7 °F 51.1 °F 30.11 in NNW 2.0 mph 8.0 mph 68 % 0.00 in
19:22 61.3 °F 50.4 °F 30.11 in NNW 2.0 mph 7.0 mph 67 % 0.00 in
19:27 61.0 °F 50.0 °F 30.11 in NNW 4.0 mph 7.0 mph 67 % 0.00 in
19:32 60.6 °F 50.0 °F 30.11 in NW 1.0 mph 7.0 mph 68 % 0.00 in
19:37 60.3 °F 50.0 °F 30.11 in NW 1.0 mph 6.0 mph 69 % 0.00 in
19:42 60.1 °F 50.2 °F 30.11 in NNW 1.0 mph 6.0 mph 70 % 0.00 in
19:47 59.7 °F 50.0 °F 30.12 in Calm   7.0 mph 70 % 0.00 in
19:52 59.5 °F 50.2 °F 30.12 in NW 1.0 mph 7.0 mph 71 % 0.00 in
19:57 59.4 °F 50.0 °F 30.12 in WNW 1.0 mph 7.0 mph 71 % 0.00 in
20:02 59.2 °F 50.2 °F 30.12 in NW 1.0 mph 3.0 mph 72 % 0.00 in
20:07 58.8 °F 50.2 °F 30.12 in Calm   3.0 mph 73 % 0.00 in
20:12 58.6 °F 50.0 °F 30.13 in Calm   2.0 mph 73 % 0.00 in
20:17 58.3 °F 49.6 °F 30.13 in Calm   2.0 mph 73 % 0.00 in
20:22 57.9 °F 49.6 °F 30.13 in Calm   1.0 mph 74 % 0.00 in
20:27 57.7 °F 49.8 °F 30.13 in Calm   1.0 mph 75 % 0.00 in
20:32 57.7 °F 49.8 °F 30.13 in Calm   2.0 mph 75 % 0.00 in
20:37 57.6 °F 49.6 °F 30.14 in Calm   2.0 mph 75 % 0.00 in
20:42 57.0 °F 49.5 °F 30.14 in Calm   2.0 mph 76 % 0.00 in
20:47 56.5 °F 49.3 °F 30.15 in Calm   1.0 mph 77 % 0.00 in
20:52 56.1 °F 49.3 °F 30.15 in Calm     78 % 0.00 in
20:57 55.8 °F 49.3 °F 30.15 in Calm     79 % 0.00 in
21:02 55.2 °F 48.7 °F 30.15 in Calm     79 % 0.00 in
21:07 55.0 °F 49.3 °F 30.16 in Calm     81 % 0.00 in
21:12 54.9 °F 49.5 °F 30.16 in Calm     82 % 0.00 in
21:17 54.5 °F 49.1 °F 30.16 in Calm     82 % 0.00 in
21:22 54.3 °F 49.6 °F 30.16 in Calm     84 % 0.00 in
21:27 54.3 °F 49.6 °F 30.16 in Calm     84 % 0.00 in
21:32 54.3 °F 49.6 °F 30.16 in Calm     84 % 0.00 in
21:37 54.0 °F 49.3 °F 30.17 in Calm     84 % 0.00 in
21:42 53.8 °F 49.5 °F 30.17 in Calm     85 % 0.00 in
21:48 53.4 °F 49.1 °F 30.17 in Calm     85 % 0.00 in
21:53 53.2 °F 49.1 °F 30.17 in Calm     86 % 0.00 in
21:58 52.9 °F 48.7 °F 30.17 in Calm     86 % 0.00 in
22:03 52.7 °F 48.9 °F 30.17 in Calm     87 % 0.00 in
22:08 52.5 °F 49.1 °F 30.18 in Calm     88 % 0.00 in
22:13 52.2 °F 48.7 °F 30.18 in Calm     88 % 0.00 in
22:18 51.8 °F 48.7 °F 30.18 in Calm     89 % 0.00 in
22:23 51.6 °F 48.6 °F 30.18 in Calm     89 % 0.00 in
22:28 51.3 °F 48.4 °F 30.18 in Calm     90 % 0.00 in
22:33 51.6 °F 49.1 °F 30.18 in Calm     91 % 0.00 in
22:38 51.8 °F 49.3 °F 30.19 in Calm     91 % 0.00 in
22:43 51.8 °F 49.3 °F 30.18 in Calm     91 % 0.00 in
22:48 51.6 °F 49.1 °F 30.18 in Calm     91 % 0.00 in
22:53 51.4 °F 48.9 °F 30.18 in Calm     91 % 0.00 in
22:58 51.3 °F 48.7 °F 30.18 in Calm     91 % 0.00 in
22:59 51.3 °F 48.7 °F 30.18 in Calm     91 % 0.00 in
23:04 51.1 °F 48.6 °F 30.18 in Calm     91 % 0.00 in
23:09 50.9 °F 48.7 °F 30.18 in Calm     92 % 0.00 in
23:14 51.1 °F 48.9 °F 30.17 in Calm     92 % 0.00 in
23:19 51.1 °F 48.9 °F 30.17 in Calm   1.0 mph 92 % 0.00 in
23:24 51.1 °F 48.9 °F 30.17 in Calm   1.0 mph 92 % 0.00 in
23:29 50.7 °F 48.6 °F 30.18 in Calm   1.0 mph 92 % 0.00 in
23:34 50.5 °F 48.4 °F 30.17 in Calm     92 % 0.00 in
23:39 50.5 °F 48.4 °F 30.17 in Calm     92 % 0.00 in
23:44 50.2 °F 48.0 °F 30.17 in Calm     92 % 0.00 in
23:49 49.6 °F 47.5 °F 30.18 in Calm     92 % 0.00 in
23:54 49.5 °F 47.3 °F 30.18 in Calm     92 % 0.00 in
23:59 49.5 °F 47.8 °F 30.18 in Calm     94 % 0.00 in
Spring, Texas: Villages of Bridgestone
Compliments of Weather Underground - 3.25 mb

Script developed by  Jim McMurry - jmcmurry@mwt.net Adapted for the template by  Wim van der Kuil - Leuven-Template.eu

You find our weather info also at:

UK Metoffice

WeatherCloud

Weather Underground

Mid-South Weather Network

AWEKAS

Citizen Weather Observer Program (CWOP)

HAMweather, WeatherForYou, PWS Weather

Equipment we use:

Weather-station
Davis Vantage Vue

Weather-program
Meteohub

Weather-server
Debian 7.9 x86 (Guest)

Provider
DreamHost

Davis Vantage Vue

Meteohub

Debian 7.9 x86 (Guest)

DreamHost